sensor_id;sensor_type;location;lat;lon;timestamp;P1;durP1;ratioP1;P2;durP2;ratioP2
20743;SDS011;56303;52.160;-0.428;2022-12-10T00:01:21;17.43;;;13.90;;
20743;SDS011;56303;52.160;-0.428;2022-12-10T00:03:49;21.00;;;14.50;;
20743;SDS011;56303;52.160;-0.428;2022-12-10T00:06:19;17.77;;;13.97;;
20743;SDS011;56303;52.160;-0.428;2022-12-10T00:08:47;19.83;;;13.47;;
20743;SDS011;56303;52.160;-0.428;2022-12-10T00:11:15;20.37;;;15.03;;
20743;SDS011;56303;52.160;-0.428;2022-12-10T00:13:44;23.20;;;16.33;;
20743;SDS011;56303;52.160;-0.428;2022-12-10T00:16:11;21.43;;;14.90;;
20743;SDS011;56303;52.160;-0.428;2022-12-10T00:18:40;18.13;;;12.90;;
20743;SDS011;56303;52.160;-0.428;2022-12-10T00:21:11;20.93;;;14.70;;
20743;SDS011;56303;52.160;-0.428;2022-12-10T00:23:41;17.47;;;13.13;;
20743;SDS011;56303;52.160;-0.428;2022-12-10T00:26:09;19.93;;;14.30;;
20743;SDS011;56303;52.160;-0.428;2022-12-10T00:28:44;17.93;;;14.07;;
20743;SDS011;56303;52.160;-0.428;2022-12-10T00:33:41;19.37;;;14.40;;
20743;SDS011;56303;52.160;-0.428;2022-12-10T00:36:15;18.07;;;13.13;;
20743;SDS011;56303;52.160;-0.428;2022-12-10T00:38:47;19.27;;;13.83;;
20743;SDS011;56303;52.160;-0.428;2022-12-10T00:41:15;21.17;;;13.20;;
20743;SDS011;56303;52.160;-0.428;2022-12-10T00:43:42;18.30;;;13.40;;
20743;SDS011;56303;52.160;-0.428;2022-12-10T00:46:10;18.40;;;12.77;;
20743;SDS011;56303;52.160;-0.428;2022-12-10T00:48:37;20.40;;;14.10;;
20743;SDS011;56303;52.160;-0.428;2022-12-10T00:51:09;18.83;;;13.30;;
20743;SDS011;56303;52.160;-0.428;2022-12-10T00:53:39;21.30;;;14.57;;
20743;SDS011;56303;52.160;-0.428;2022-12-10T00:56:07;19.07;;;13.93;;
20743;SDS011;56303;52.160;-0.428;2022-12-10T00:58:36;18.33;;;13.70;;
20743;SDS011;56303;52.160;-0.428;2022-12-10T01:03:45;19.83;;;12.13;;
20743;SDS011;56303;52.160;-0.428;2022-12-10T01:06:21;18.47;;;13.50;;
20743;SDS011;56303;52.160;-0.428;2022-12-10T01:08:50;18.63;;;13.30;;
20743;SDS011;56303;52.160;-0.428;2022-12-10T01:11:19;21.33;;;13.63;;
20743;SDS011;56303;52.160;-0.428;2022-12-10T01:13:47;18.00;;;13.57;;
20743;SDS011;56303;52.160;-0.428;2022-12-10T01:16:16;19.33;;;14.57;;
20743;SDS011;56303;52.160;-0.428;2022-12-10T01:18:45;20.47;;;13.17;;
20743;SDS011;56303;52.160;-0.428;2022-12-10T01:21:13;14.70;;;12.33;;
20743;SDS011;56303;52.160;-0.428;2022-12-10T01:23:42;16.63;;;12.73;;
20743;SDS011;56303;52.160;-0.428;2022-12-10T01:26:12;15.60;;;13.43;;
20743;SDS011;56303;52.160;-0.428;2022-12-10T01:28:41;19.27;;;13.43;;
20743;SDS011;56303;52.160;-0.428;2022-12-10T01:31:10;18.60;;;12.70;;
20743;SDS011;56303;52.160;-0.428;2022-12-10T01:33:42;14.70;;;12.63;;
20743;SDS011;56303;52.160;-0.428;2022-12-10T01:36:16;19.27;;;13.63;;
20743;SDS011;56303;52.160;-0.428;2022-12-10T01:38:44;18.07;;;13.83;;
20743;SDS011;56303;52.160;-0.428;2022-12-10T01:41:22;18.40;;;13.77;;
20743;SDS011;56303;52.160;-0.428;2022-12-10T01:46:18;19.10;;;14.67;;
20743;SDS011;56303;52.160;-0.428;2022-12-10T01:48:45;24.20;;;14.87;;
20743;SDS011;56303;52.160;-0.428;2022-12-10T01:51:13;19.97;;;14.20;;
20743;SDS011;56303;52.160;-0.428;2022-12-10T01:53:41;19.40;;;13.50;;
20743;SDS011;56303;52.160;-0.428;2022-12-10T01:56:11;18.57;;;12.73;;
20743;SDS011;56303;52.160;-0.428;2022-12-10T01:58:38;19.97;;;13.80;;
20743;SDS011;56303;52.160;-0.428;2022-12-10T02:06:55;19.57;;;13.03;;
20743;SDS011;56303;52.160;-0.428;2022-12-10T02:09:34;18.80;;;13.07;;
20743;SDS011;56303;52.160;-0.428;2022-12-10T02:15:02;18.90;;;13.23;;
20743;SDS011;56303;52.160;-0.428;2022-12-10T02:17:51;20.13;;;12.87;;
20743;SDS011;56303;52.160;-0.428;2022-12-10T02:20:26;17.80;;;13.50;;
20743;SDS011;56303;52.160;-0.428;2022-12-10T02:23:08;17.80;;;12.73;;
20743;SDS011;56303;52.160;-0.428;2022-12-10T02:25:43;18.97;;;12.73;;
20743;SDS011;56303;52.160;-0.428;2022-12-10T02:30:44;17.10;;;12.00;;
20743;SDS011;56303;52.160;-0.428;2022-12-10T02:33:13;18.73;;;13.37;;
20743;SDS011;56303;52.160;-0.428;2022-12-10T02:35:42;16.17;;;12.60;;
20743;SDS011;56303;52.160;-0.428;2022-12-10T02:38:16;16.37;;;12.20;;
20743;SDS011;56303;52.160;-0.428;2022-12-10T02:40:52;17.23;;;11.50;;
20743;SDS011;56303;52.160;-0.428;2022-12-10T02:43:24;17.00;;;12.40;;
20743;SDS011;56303;52.160;-0.428;2022-12-10T02:45:54;17.33;;;11.83;;
20743;SDS011;56303;52.160;-0.428;2022-12-10T02:48:23;17.37;;;11.83;;
20743;SDS011;56303;52.160;-0.428;2022-12-10T02:50:51;20.20;;;12.83;;
20743;SDS011;56303;52.160;-0.428;2022-12-10T02:53:18;17.13;;;13.03;;
20743;SDS011;56303;52.160;-0.428;2022-12-10T02:56:05;19.37;;;13.27;;
20743;SDS011;56303;52.160;-0.428;2022-12-10T03:01:29;15.57;;;12.17;;
20743;SDS011;56303;52.160;-0.428;2022-12-10T03:04:46;20.07;;;12.53;;
20743;SDS011;56303;52.160;-0.428;2022-12-10T03:07:06;21.77;;;13.27;;
20743;SDS011;56303;52.160;-0.428;2022-12-10T03:09:40;18.27;;;12.30;;
20743;SDS011;56303;52.160;-0.428;2022-12-10T03:12:33;14.03;;;11.50;;
20743;SDS011;56303;52.160;-0.428;2022-12-10T03:15:07;14.93;;;11.63;;
20743;SDS011;56303;52.160;-0.428;2022-12-10T03:17:36;15.13;;;11.63;;
20743;SDS011;56303;52.160;-0.428;2022-12-10T03:20:06;17.40;;;11.70;;
20743;SDS011;56303;52.160;-0.428;2022-12-10T03:22:37;14.70;;;11.50;;
20743;SDS011;56303;52.160;-0.428;2022-12-10T03:25:07;16.23;;;12.27;;
20743;SDS011;56303;52.160;-0.428;2022-12-10T03:27:37;16.50;;;11.57;;
20743;SDS011;56303;52.160;-0.428;2022-12-10T03:30:07;17.73;;;11.97;;
20743;SDS011;56303;52.160;-0.428;2022-12-10T03:32:34;15.53;;;12.70;;
20743;SDS011;56303;52.160;-0.428;2022-12-10T03:35:02;16.97;;;12.50;;
20743;SDS011;56303;52.160;-0.428;2022-12-10T03:37:31;18.73;;;12.13;;
20743;SDS011;56303;52.160;-0.428;2022-12-10T03:39:58;17.13;;;11.83;;
20743;SDS011;56303;52.160;-0.428;2022-12-10T03:42:26;19.57;;;12.60;;
20743;SDS011;56303;52.160;-0.428;2022-12-10T03:44:52;17.33;;;12.37;;
20743;SDS011;56303;52.160;-0.428;2022-12-10T03:47:19;18.10;;;13.07;;
20743;SDS011;56303;52.160;-0.428;2022-12-10T03:49:46;17.93;;;13.07;;
20743;SDS011;56303;52.160;-0.428;2022-12-10T03:52:13;15.63;;;12.20;;
20743;SDS011;56303;52.160;-0.428;2022-12-10T03:54:40;17.60;;;12.50;;
20743;SDS011;56303;52.160;-0.428;2022-12-10T03:57:07;14.33;;;11.37;;
20743;SDS011;56303;52.160;-0.428;2022-12-10T03:59:34;18.73;;;12.77;;
20743;SDS011;56303;52.160;-0.428;2022-12-10T04:02:01;17.27;;;12.57;;
20743;SDS011;56303;52.160;-0.428;2022-12-10T04:04:28;19.50;;;14.60;;
20743;SDS011;56303;52.160;-0.428;2022-12-10T04:06:55;20.47;;;14.33;;
20743;SDS011;56303;52.160;-0.428;2022-12-10T04:09:22;17.67;;;12.83;;
20743;SDS011;56303;52.160;-0.428;2022-12-10T04:11:49;16.67;;;12.33;;
20743;SDS011;56303;52.160;-0.428;2022-12-10T04:14:15;16.53;;;12.17;;
20743;SDS011;56303;52.160;-0.428;2022-12-10T04:17:01;18.03;;;12.80;;
20743;SDS011;56303;52.160;-0.428;2022-12-10T04:19:28;17.40;;;11.83;;
20743;SDS011;56303;52.160;-0.428;2022-12-10T04:21:55;15.37;;;11.57;;
20743;SDS011;56303;52.160;-0.428;2022-12-10T04:24:41;15.80;;;11.33;;
20743;SDS011;56303;52.160;-0.428;2022-12-10T04:27:27;17.23;;;12.10;;
20743;SDS011;56303;52.160;-0.428;2022-12-10T04:29:57;15.80;;;11.53;;
20743;SDS011;56303;52.160;-0.428;2022-12-10T04:32:25;19.20;;;13.47;;
20743;SDS011;56303;52.160;-0.428;2022-12-10T04:34:54;17.83;;;11.67;;
20743;SDS011;56303;52.160;-0.428;2022-12-10T04:37:21;15.00;;;12.27;;
20743;SDS011;56303;52.160;-0.428;2022-12-10T04:39:51;18.33;;;12.50;;
20743;SDS011;56303;52.160;-0.428;2022-12-10T04:42:19;17.57;;;11.63;;
20743;SDS011;56303;52.160;-0.428;2022-12-10T04:44:47;16.43;;;11.80;;
20743;SDS011;56303;52.160;-0.428;2022-12-10T04:47:14;17.30;;;11.67;;
20743;SDS011;56303;52.160;-0.428;2022-12-10T04:49:41;17.77;;;11.17;;
20743;SDS011;56303;52.160;-0.428;2022-12-10T04:52:10;16.60;;;10.77;;
20743;SDS011;56303;52.160;-0.428;2022-12-10T04:54:38;16.60;;;11.57;;
20743;SDS011;56303;52.160;-0.428;2022-12-10T04:57:06;15.87;;;11.70;;
20743;SDS011;56303;52.160;-0.428;2022-12-10T04:59:34;15.70;;;11.60;;
20743;SDS011;56303;52.160;-0.428;2022-12-10T05:02:02;15.00;;;12.20;;
20743;SDS011;56303;52.160;-0.428;2022-12-10T05:04:30;16.73;;;12.20;;
20743;SDS011;56303;52.160;-0.428;2022-12-10T05:06:57;13.60;;;10.50;;
20743;SDS011;56303;52.160;-0.428;2022-12-10T05:09:23;14.67;;;12.33;;
20743;SDS011;56303;52.160;-0.428;2022-12-10T05:11:50;15.27;;;12.00;;
20743;SDS011;56303;52.160;-0.428;2022-12-10T05:14:17;15.30;;;11.27;;
20743;SDS011;56303;52.160;-0.428;2022-12-10T05:16:44;15.10;;;12.07;;
20743;SDS011;56303;52.160;-0.428;2022-12-10T05:19:11;17.63;;;12.87;;
20743;SDS011;56303;52.160;-0.428;2022-12-10T05:21:38;16.10;;;10.73;;
20743;SDS011;56303;52.160;-0.428;2022-12-10T05:24:23;16.23;;;11.57;;
20743;SDS011;56303;52.160;-0.428;2022-12-10T05:26:51;14.67;;;11.43;;
20743;SDS011;56303;52.160;-0.428;2022-12-10T05:29:18;15.97;;;12.13;;
20743;SDS011;56303;52.160;-0.428;2022-12-10T05:31:45;20.90;;;12.10;;
20743;SDS011;56303;52.160;-0.428;2022-12-10T05:34:12;16.50;;;13.10;;
20743;SDS011;56303;52.160;-0.428;2022-12-10T05:36:39;17.93;;;12.13;;
20743;SDS011;56303;52.160;-0.428;2022-12-10T05:39:07;18.77;;;11.97;;
20743;SDS011;56303;52.160;-0.428;2022-12-10T05:41:36;18.50;;;12.60;;
20743;SDS011;56303;52.160;-0.428;2022-12-10T05:44:03;13.37;;;10.40;;
20743;SDS011;56303;52.160;-0.428;2022-12-10T05:46:31;18.50;;;13.00;;
20743;SDS011;56303;52.160;-0.428;2022-12-10T05:49:00;15.53;;;11.97;;
20743;SDS011;56303;52.160;-0.428;2022-12-10T05:51:29;16.67;;;11.07;;
20743;SDS011;56303;52.160;-0.428;2022-12-10T05:53:58;17.03;;;11.87;;
20743;SDS011;56303;52.160;-0.428;2022-12-10T05:56:27;15.93;;;12.97;;
20743;SDS011;56303;52.160;-0.428;2022-12-10T05:58:57;17.90;;;11.93;;
20743;SDS011;56303;52.160;-0.428;2022-12-10T06:01:27;18.43;;;12.00;;
20743;SDS011;56303;52.160;-0.428;2022-12-10T06:03:59;16.77;;;11.63;;
20743;SDS011;56303;52.160;-0.428;2022-12-10T06:06:28;18.27;;;13.13;;
20743;SDS011;56303;52.160;-0.428;2022-12-10T06:09:00;18.63;;;13.37;;
20743;SDS011;56303;52.160;-0.428;2022-12-10T06:11:28;16.43;;;12.30;;
20743;SDS011;56303;52.160;-0.428;2022-12-10T06:13:58;15.63;;;11.73;;
20743;SDS011;56303;52.160;-0.428;2022-12-10T06:16:26;16.90;;;11.40;;
20743;SDS011;56303;52.160;-0.428;2022-12-10T06:18:53;20.77;;;13.43;;
20743;SDS011;56303;52.160;-0.428;2022-12-10T06:21:22;14.67;;;12.40;;
20743;SDS011;56303;52.160;-0.428;2022-12-10T06:23:49;15.63;;;12.60;;
20743;SDS011;56303;52.160;-0.428;2022-12-10T06:26:20;19.13;;;12.30;;
20743;SDS011;56303;52.160;-0.428;2022-12-10T06:28:49;19.43;;;13.80;;
20743;SDS011;56303;52.160;-0.428;2022-12-10T06:31:17;17.87;;;12.80;;
20743;SDS011;56303;52.160;-0.428;2022-12-10T06:33:44;16.93;;;11.30;;
20743;SDS011;56303;52.160;-0.428;2022-12-10T06:36:12;18.03;;;12.30;;
20743;SDS011;56303;52.160;-0.428;2022-12-10T06:38:40;18.03;;;12.63;;
20743;SDS011;56303;52.160;-0.428;2022-12-10T06:41:08;15.33;;;11.23;;
20743;SDS011;56303;52.160;-0.428;2022-12-10T06:43:37;14.37;;;11.33;;
20743;SDS011;56303;52.160;-0.428;2022-12-10T06:46:12;17.17;;;12.33;;
20743;SDS011;56303;52.160;-0.428;2022-12-10T06:48:42;16.07;;;11.53;;
20743;SDS011;56303;52.160;-0.428;2022-12-10T06:51:09;18.30;;;12.97;;
20743;SDS011;56303;52.160;-0.428;2022-12-10T06:53:37;15.37;;;11.80;;
20743;SDS011;56303;52.160;-0.428;2022-12-10T06:56:05;18.80;;;12.27;;
20743;SDS011;56303;52.160;-0.428;2022-12-10T06:58:33;16.30;;;11.40;;
20743;SDS011;56303;52.160;-0.428;2022-12-10T07:01:07;17.10;;;12.57;;
20743;SDS011;56303;52.160;-0.428;2022-12-10T07:03:39;15.33;;;11.37;;
20743;SDS011;56303;52.160;-0.428;2022-12-10T07:06:07;14.83;;;11.63;;
20743;SDS011;56303;52.160;-0.428;2022-12-10T07:08:34;18.67;;;12.03;;
20743;SDS011;56303;52.160;-0.428;2022-12-10T07:11:03;18.67;;;12.03;;
20743;SDS011;56303;52.160;-0.428;2022-12-10T07:13:31;15.30;;;11.30;;
20743;SDS011;56303;52.160;-0.428;2022-12-10T07:15:58;14.50;;;11.20;;
20743;SDS011;56303;52.160;-0.428;2022-12-10T07:18:25;17.40;;;11.87;;
20743;SDS011;56303;52.160;-0.428;2022-12-10T07:20:53;13.83;;;10.67;;
20743;SDS011;56303;52.160;-0.428;2022-12-10T07:23:20;17.77;;;12.63;;
20743;SDS011;56303;52.160;-0.428;2022-12-10T07:25:47;14.67;;;11.93;;
20743;SDS011;56303;52.160;-0.428;2022-12-10T07:28:14;19.00;;;12.73;;
20743;SDS011;56303;52.160;-0.428;2022-12-10T07:30:41;19.07;;;12.27;;
20743;SDS011;56303;52.160;-0.428;2022-12-10T07:33:08;16.10;;;11.50;;
20743;SDS011;56303;52.160;-0.428;2022-12-10T07:35:37;14.60;;;11.00;;
20743;SDS011;56303;52.160;-0.428;2022-12-10T07:38:12;14.27;;;11.27;;
20743;SDS011;56303;52.160;-0.428;2022-12-10T07:40:39;18.10;;;12.40;;
20743;SDS011;56303;52.160;-0.428;2022-12-10T07:43:06;13.40;;;11.10;;
20743;SDS011;56303;52.160;-0.428;2022-12-10T07:45:32;15.33;;;11.87;;
20743;SDS011;56303;52.160;-0.428;2022-12-10T07:47:59;16.90;;;13.17;;
20743;SDS011;56303;52.160;-0.428;2022-12-10T07:50:26;16.67;;;11.33;;
20743;SDS011;56303;52.160;-0.428;2022-12-10T07:52:53;14.20;;;10.53;;
20743;SDS011;56303;52.160;-0.428;2022-12-10T07:55:20;18.90;;;12.67;;
20743;SDS011;56303;52.160;-0.428;2022-12-10T07:57:46;15.13;;;11.67;;
20743;SDS011;56303;52.160;-0.428;2022-12-10T08:00:13;17.90;;;13.03;;
20743;SDS011;56303;52.160;-0.428;2022-12-10T08:02:40;14.93;;;11.73;;
20743;SDS011;56303;52.160;-0.428;2022-12-10T08:05:07;15.33;;;12.57;;
20743;SDS011;56303;52.160;-0.428;2022-12-10T08:07:34;14.43;;;11.90;;
20743;SDS011;56303;52.160;-0.428;2022-12-10T08:10:02;14.77;;;11.57;;
20743;SDS011;56303;52.160;-0.428;2022-12-10T08:12:29;13.37;;;10.77;;
20743;SDS011;56303;52.160;-0.428;2022-12-10T08:14:56;15.97;;;12.03;;
20743;SDS011;56303;52.160;-0.428;2022-12-10T08:17:23;16.30;;;12.40;;
20743;SDS011;56303;52.160;-0.428;2022-12-10T08:19:50;16.07;;;11.77;;
20743;SDS011;56303;52.160;-0.428;2022-12-10T08:22:16;15.50;;;12.50;;
20743;SDS011;56303;52.160;-0.428;2022-12-10T08:24:43;15.23;;;11.20;;
20743;SDS011;56303;52.160;-0.428;2022-12-10T08:27:10;27.97;;;23.73;;
20743;SDS011;56303;52.160;-0.428;2022-12-10T08:29:37;24.53;;;21.17;;
20743;SDS011;56303;52.160;-0.428;2022-12-10T08:32:05;17.77;;;13.77;;
20743;SDS011;56303;52.160;-0.428;2022-12-10T08:34:32;19.77;;;15.07;;
20743;SDS011;56303;52.160;-0.428;2022-12-10T08:36:59;18.50;;;13.90;;
20743;SDS011;56303;52.160;-0.428;2022-12-10T08:39:25;14.67;;;12.23;;
20743;SDS011;56303;52.160;-0.428;2022-12-10T08:41:53;17.67;;;14.13;;
20743;SDS011;56303;52.160;-0.428;2022-12-10T08:44:19;16.97;;;12.60;;
20743;SDS011;56303;52.160;-0.428;2022-12-10T08:46:46;15.67;;;12.83;;
20743;SDS011;56303;52.160;-0.428;2022-12-10T08:49:13;20.67;;;14.53;;
20743;SDS011;56303;52.160;-0.428;2022-12-10T08:51:40;20.53;;;13.50;;
20743;SDS011;56303;52.160;-0.428;2022-12-10T08:54:06;16.13;;;13.07;;
20743;SDS011;56303;52.160;-0.428;2022-12-10T08:56:33;17.23;;;13.10;;
20743;SDS011;56303;52.160;-0.428;2022-12-10T08:59:01;15.53;;;12.97;;
20743;SDS011;56303;52.160;-0.428;2022-12-10T09:01:28;17.87;;;13.60;;
20743;SDS011;56303;52.160;-0.428;2022-12-10T09:03:55;20.20;;;15.13;;
20743;SDS011;56303;52.160;-0.428;2022-12-10T09:06:22;21.20;;;14.73;;
20743;SDS011;56303;52.160;-0.428;2022-12-10T09:08:50;22.77;;;15.80;;
20743;SDS011;56303;52.160;-0.428;2022-12-10T09:11:19;23.30;;;17.57;;
20743;SDS011;56303;52.160;-0.428;2022-12-10T09:13:48;18.40;;;15.37;;
20743;SDS011;56303;52.160;-0.428;2022-12-10T09:16:15;22.37;;;15.13;;
20743;SDS011;56303;52.160;-0.428;2022-12-10T09:18:42;15.20;;;13.10;;
20743;SDS011;56303;52.160;-0.428;2022-12-10T09:21:11;18.50;;;14.90;;
20743;SDS011;56303;52.160;-0.428;2022-12-10T09:23:40;21.07;;;15.00;;
20743;SDS011;56303;52.160;-0.428;2022-12-10T09:26:09;16.20;;;13.83;;
20743;SDS011;56303;52.160;-0.428;2022-12-10T09:28:37;16.03;;;13.17;;
20743;SDS011;56303;52.160;-0.428;2022-12-10T09:31:04;18.20;;;13.60;;
20743;SDS011;56303;52.160;-0.428;2022-12-10T09:33:41;21.30;;;14.30;;
20743;SDS011;56303;52.160;-0.428;2022-12-10T09:36:09;19.03;;;13.53;;
20743;SDS011;56303;52.160;-0.428;2022-12-10T09:38:38;17.07;;;13.07;;
20743;SDS011;56303;52.160;-0.428;2022-12-10T09:46:54;16.23;;;12.57;;
20743;SDS011;56303;52.160;-0.428;2022-12-10T09:52:15;18.33;;;13.77;;
20743;SDS011;56303;52.160;-0.428;2022-12-10T09:54:50;17.40;;;12.83;;
20743;SDS011;56303;52.160;-0.428;2022-12-10T09:57:35;15.07;;;12.33;;
20743;SDS011;56303;52.160;-0.428;2022-12-10T10:03:04;18.90;;;14.00;;
20743;SDS011;56303;52.160;-0.428;2022-12-10T10:05:34;19.20;;;14.43;;
20743;SDS011;56303;52.160;-0.428;2022-12-10T10:08:05;18.53;;;16.30;;
20743;SDS011;56303;52.160;-0.428;2022-12-10T10:10:39;19.50;;;14.30;;
20743;SDS011;56303;52.160;-0.428;2022-12-10T10:15:35;15.37;;;12.57;;
20743;SDS011;56303;52.160;-0.428;2022-12-10T10:18:14;15.67;;;11.93;;
20743;SDS011;56303;52.160;-0.428;2022-12-10T10:20:52;19.43;;;13.23;;
20743;SDS011;56303;52.160;-0.428;2022-12-10T10:23:19;17.13;;;13.17;;
20743;SDS011;56303;52.160;-0.428;2022-12-10T10:25:46;18.17;;;13.10;;
20743;SDS011;56303;52.160;-0.428;2022-12-10T10:28:18;15.90;;;12.67;;
20743;SDS011;56303;52.160;-0.428;2022-12-10T10:30:47;15.70;;;12.40;;
20743;SDS011;56303;52.160;-0.428;2022-12-10T10:33:16;17.27;;;13.23;;
20743;SDS011;56303;52.160;-0.428;2022-12-10T10:35:45;17.07;;;12.80;;
20743;SDS011;56303;52.160;-0.428;2022-12-10T10:38:19;16.97;;;13.03;;
20743;SDS011;56303;52.160;-0.428;2022-12-10T10:40:52;17.37;;;13.27;;
20743;SDS011;56303;52.160;-0.428;2022-12-10T10:43:25;14.80;;;12.67;;
20743;SDS011;56303;52.160;-0.428;2022-12-10T10:46:14;16.17;;;12.80;;
20743;SDS011;56303;52.160;-0.428;2022-12-10T10:48:43;19.90;;;12.93;;
20743;SDS011;56303;52.160;-0.428;2022-12-10T11:01:51;17.73;;;12.53;;
20743;SDS011;56303;52.160;-0.428;2022-12-10T11:04:22;17.30;;;12.90;;
20743;SDS011;56303;52.160;-0.428;2022-12-10T11:06:56;15.93;;;12.60;;
20743;SDS011;56303;52.160;-0.428;2022-12-10T11:09:30;16.17;;;12.67;;
20743;SDS011;56303;52.160;-0.428;2022-12-10T11:12:01;18.13;;;12.97;;
20743;SDS011;56303;52.160;-0.428;2022-12-10T11:14:39;19.27;;;13.10;;
20743;SDS011;56303;52.160;-0.428;2022-12-10T11:19:58;17.63;;;12.07;;
20743;SDS011;56303;52.160;-0.428;2022-12-10T11:22:27;15.17;;;11.93;;
20743;SDS011;56303;52.160;-0.428;2022-12-10T11:24:59;15.53;;;10.87;;
20743;SDS011;56303;52.160;-0.428;2022-12-10T11:30:25;15.43;;;11.47;;
20743;SDS011;56303;52.160;-0.428;2022-12-10T11:41:28;15.07;;;11.63;;
20743;SDS011;56303;52.160;-0.428;2022-12-10T11:49:58;15.43;;;11.03;;
20743;SDS011;56303;52.160;-0.428;2022-12-10T12:00:55;13.73;;;8.97;;
20743;SDS011;56303;52.160;-0.428;2022-12-10T12:03:55;11.77;;;8.20;;
20743;SDS011;56303;52.160;-0.428;2022-12-10T12:09:27;9.80;;;7.30;;
20743;SDS011;56303;52.160;-0.428;2022-12-10T12:15:13;9.30;;;7.30;;
20743;SDS011;56303;52.160;-0.428;2022-12-10T12:18:02;10.40;;;8.33;;
20743;SDS011;56303;52.160;-0.428;2022-12-10T12:23:03;10.57;;;7.17;;
20743;SDS011;56303;52.160;-0.428;2022-12-10T12:26:01;9.07;;;7.30;;
20743;SDS011;56303;52.160;-0.428;2022-12-10T12:28:34;9.10;;;6.37;;
20743;SDS011;56303;52.160;-0.428;2022-12-10T12:31:09;8.67;;;6.40;;
20743;SDS011;56303;52.160;-0.428;2022-12-10T12:36:27;9.87;;;5.70;;
20743;SDS011;56303;52.160;-0.428;2022-12-10T12:44:47;8.13;;;5.90;;
20743;SDS011;56303;52.160;-0.428;2022-12-10T12:50:19;8.70;;;6.63;;
20743;SDS011;56303;52.160;-0.428;2022-12-10T12:52:57;8.50;;;6.50;;
20743;SDS011;56303;52.160;-0.428;2022-12-10T12:55:31;9.37;;;7.10;;
20743;SDS011;56303;52.160;-0.428;2022-12-10T13:00:40;6.70;;;5.30;;
20743;SDS011;56303;52.160;-0.428;2022-12-10T13:03:29;8.00;;;6.27;;
20743;SDS011;56303;52.160;-0.428;2022-12-10T13:06:24;10.47;;;6.30;;
20743;SDS011;56303;52.160;-0.428;2022-12-10T13:11:38;10.07;;;6.43;;
20743;SDS011;56303;52.160;-0.428;2022-12-10T13:19:22;8.57;;;6.23;;
20743;SDS011;56303;52.160;-0.428;2022-12-10T13:22:11;9.27;;;6.97;;
20743;SDS011;56303;52.160;-0.428;2022-12-10T13:25:12;7.80;;;6.20;;
20743;SDS011;56303;52.160;-0.428;2022-12-10T13:27:41;9.83;;;6.27;;
20743;SDS011;56303;52.160;-0.428;2022-12-10T13:30:30;9.67;;;7.23;;
20743;SDS011;56303;52.160;-0.428;2022-12-10T13:33:12;7.30;;;6.07;;
20743;SDS011;56303;52.160;-0.428;2022-12-10T13:35:48;9.57;;;5.70;;
20743;SDS011;56303;52.160;-0.428;2022-12-10T13:38:34;7.37;;;6.13;;
20743;SDS011;56303;52.160;-0.428;2022-12-10T13:41:07;7.87;;;6.50;;
20743;SDS011;56303;52.160;-0.428;2022-12-10T13:49:26;8.37;;;5.87;;
20743;SDS011;56303;52.160;-0.428;2022-12-10T13:52:19;8.77;;;5.80;;
20743;SDS011;56303;52.160;-0.428;2022-12-10T13:54:59;7.33;;;5.97;;
20743;SDS011;56303;52.160;-0.428;2022-12-10T13:57:56;7.83;;;5.90;;
20743;SDS011;56303;52.160;-0.428;2022-12-10T14:03:47;10.13;;;6.00;;
20743;SDS011;56303;52.160;-0.428;2022-12-10T14:06:20;6.80;;;5.27;;
20743;SDS011;56303;52.160;-0.428;2022-12-10T14:08:59;7.23;;;5.10;;
20743;SDS011;56303;52.160;-0.428;2022-12-10T14:11:31;8.13;;;4.90;;
20743;SDS011;56303;52.160;-0.428;2022-12-10T14:14:03;6.00;;;5.20;;
20743;SDS011;56303;52.160;-0.428;2022-12-10T14:16:36;7.70;;;5.70;;
20743;SDS011;56303;52.160;-0.428;2022-12-10T14:19:06;10.83;;;7.30;;
20743;SDS011;56303;52.160;-0.428;2022-12-10T14:21:38;6.47;;;5.10;;
20743;SDS011;56303;52.160;-0.428;2022-12-10T14:26:59;8.33;;;5.90;;
20743;SDS011;56303;52.160;-0.428;2022-12-10T14:29:28;7.80;;;6.67;;
20743;SDS011;56303;52.160;-0.428;2022-12-10T14:31:55;8.00;;;6.47;;
20743;SDS011;56303;52.160;-0.428;2022-12-10T14:34:24;9.20;;;6.90;;
20743;SDS011;56303;52.160;-0.428;2022-12-10T14:36:54;9.57;;;6.00;;
20743;SDS011;56303;52.160;-0.428;2022-12-10T14:39:27;8.63;;;6.80;;
20743;SDS011;56303;52.160;-0.428;2022-12-10T14:41:59;8.80;;;6.67;;
20743;SDS011;56303;52.160;-0.428;2022-12-10T14:44:28;9.00;;;6.30;;
20743;SDS011;56303;52.160;-0.428;2022-12-10T14:47:06;8.67;;;6.50;;
20743;SDS011;56303;52.160;-0.428;2022-12-10T14:49:38;7.53;;;6.00;;
20743;SDS011;56303;52.160;-0.428;2022-12-10T14:52:51;9.57;;;6.63;;
20743;SDS011;56303;52.160;-0.428;2022-12-10T14:55:02;9.63;;;6.50;;
20743;SDS011;56303;52.160;-0.428;2022-12-10T14:57:34;8.37;;;6.23;;
20743;SDS011;56303;52.160;-0.428;2022-12-10T15:02:37;8.40;;;6.30;;
20743;SDS011;56303;52.160;-0.428;2022-12-10T15:05:13;10.30;;;6.23;;
20743;SDS011;56303;52.160;-0.428;2022-12-10T15:07:48;8.63;;;6.20;;
20743;SDS011;56303;52.160;-0.428;2022-12-10T15:10:36;6.90;;;5.90;;
20743;SDS011;56303;52.160;-0.428;2022-12-10T15:13:05;9.27;;;7.23;;
20743;SDS011;56303;52.160;-0.428;2022-12-10T15:18:12;9.17;;;6.50;;
20743;SDS011;56303;52.160;-0.428;2022-12-10T15:26:14;10.30;;;7.37;;
20743;SDS011;56303;52.160;-0.428;2022-12-10T15:28:42;12.33;;;7.70;;
20743;SDS011;56303;52.160;-0.428;2022-12-10T15:33:55;9.63;;;7.97;;
20743;SDS011;56303;52.160;-0.428;2022-12-10T15:44:45;10.47;;;7.43;;
20743;SDS011;56303;52.160;-0.428;2022-12-10T15:49:52;11.67;;;9.07;;
20743;SDS011;56303;52.160;-0.428;2022-12-10T15:52:24;11.57;;;8.80;;
20743;SDS011;56303;52.160;-0.428;2022-12-10T15:55:02;11.33;;;9.13;;
20743;SDS011;56303;52.160;-0.428;2022-12-10T15:57:30;12.13;;;8.80;;
20743;SDS011;56303;52.160;-0.428;2022-12-10T16:00:00;11.63;;;9.27;;
20743;SDS011;56303;52.160;-0.428;2022-12-10T16:02:53;11.43;;;9.20;;
20743;SDS011;56303;52.160;-0.428;2022-12-10T16:07:49;13.80;;;10.53;;
20743;SDS011;56303;52.160;-0.428;2022-12-10T16:10:19;13.17;;;11.03;;
20743;SDS011;56303;52.160;-0.428;2022-12-10T16:12:49;12.93;;;10.67;;
20743;SDS011;56303;52.160;-0.428;2022-12-10T16:15:34;13.20;;;9.93;;
20743;SDS011;56303;52.160;-0.428;2022-12-10T16:18:11;13.57;;;11.47;;
20743;SDS011;56303;52.160;-0.428;2022-12-10T16:20:38;15.87;;;9.77;;
20743;SDS011;56303;52.160;-0.428;2022-12-10T16:23:05;12.87;;;9.93;;
20743;SDS011;56303;52.160;-0.428;2022-12-10T16:25:32;13.20;;;10.03;;
20743;SDS011;56303;52.160;-0.428;2022-12-10T16:28:02;14.10;;;10.40;;
20743;SDS011;56303;52.160;-0.428;2022-12-10T16:30:34;13.70;;;10.67;;
20743;SDS011;56303;52.160;-0.428;2022-12-10T16:33:13;41.90;;;30.40;;
20743;SDS011;56303;52.160;-0.428;2022-12-10T16:35:41;29.57;;;21.10;;
20743;SDS011;56303;52.160;-0.428;2022-12-10T16:38:08;17.77;;;13.23;;
20743;SDS011;56303;52.160;-0.428;2022-12-10T16:40:37;14.33;;;10.87;;
20743;SDS011;56303;52.160;-0.428;2022-12-10T16:43:05;14.43;;;11.03;;
20743;SDS011;56303;52.160;-0.428;2022-12-10T16:45:33;14.77;;;11.63;;
20743;SDS011;56303;52.160;-0.428;2022-12-10T16:48:03;16.03;;;11.60;;
20743;SDS011;56303;52.160;-0.428;2022-12-10T16:50:30;13.73;;;11.70;;
20743;SDS011;56303;52.160;-0.428;2022-12-10T16:52:58;15.10;;;12.17;;
20743;SDS011;56303;52.160;-0.428;2022-12-10T16:55:33;12.63;;;10.83;;
20743;SDS011;56303;52.160;-0.428;2022-12-10T16:58:00;15.73;;;11.80;;
20743;SDS011;56303;52.160;-0.428;2022-12-10T17:00:27;13.87;;;11.30;;